Data for 10/07/2018

Time Sea-Level Adjusted Pressure Absolute Pressure Temperature Relative Humidity Dew Point   
(mb) (inHg) (mb) (inHg) (C) (F) (%) (C) (F)
00:05 1018 30.06 848 25.04 4.8 40.7 80 1.6 35
00:10 1018 30.06 848 25.04 4.8 40.6 80 1.7 35.1
00:15 1018 30.06 848 25.04 4.8 40.6 80 1.6 34.9
00:20 1018 30.06 848 25.04 4.8 40.7 80 1.6 34.9
00:25 1018 30.06 848 25.04 4.8 40.6 80 1.6 34.8
00:30 1018 30.06 848 25.04 4.8 40.6 80 1.6 34.9
00:35 1018 30.06 848 25.04 4.8 40.6 80 1.7 35
00:40 1018 30.06 848 25.04 4.8 40.6 80 1.6 34.9
00:45 1018 30.06 848 25.04 4.8 40.6 80 1.6 35
00:50 1018 30.06 848 25.04 4.8 40.6 80 1.6 34.9
00:55 1018 30.06 848 25.04 4.8 40.6 80 1.7 35
01:00 1018 30.06 848 25.04 4.7 40.5 81 1.7 35.1
01:05 1018 30.06 848 25.04 4.7 40.5 81 1.7 35
01:10 1018 30.06 848 25.04 4.7 40.4 80 1.6 34.8
01:15 1018 30.06 848 25.04 4.7 40.5 81 1.7 35
01:20 1018 30.06 848 25.04 4.7 40.5 80 1.6 34.9
01:25 1018 30.06 848 25.04 4.7 40.5 80 1.7 35
01:30 1019 30.09 848 25.04 4.7 40.5 80 1.5 34.8
01:35 1019 30.09 848 25.04 4.8 40.6 79 1.5 34.7
01:40 1019 30.09 848 25.04 4.8 40.6 80 1.6 34.8
01:45 1019 30.09 848 25.04 4.8 40.6 80 1.5 34.8
01:50 1019 30.09 848 25.04 4.7 40.5 80 1.5 34.8
01:55 1019 30.09 848 25.04 4.8 40.6 80 1.6 34.9
02:00 1019 30.09 848 25.04 4.7 40.5 82 1.8 35.3
02:05 1019 30.09 848 25.04 4.6 40.4 82 1.8 35.3
02:10 1019 30.09 848 25.04 4.7 40.4 83 2 35.5
02:15 1019 30.09 848 25.04 4.6 40.3 84 2.1 35.7
02:20 1019 30.09 848 25.04 4.6 40.3 84 2.2 36
02:25 1019 30.09 848 25.04 4.6 40.3 85 2.3 36.2
02:30 1019 30.09 848 25.04 4.6 40.3 86 2.4 36.3
02:35 1019 30.09 848 25.04 4.6 40.3 86 2.4 36.4
02:40 1019 30.09 848 25.04 4.6 40.2 86 2.4 36.3
02:45 1019 30.09 848 25.04 4.7 40.4 85 2.3 36.1
02:50 1019 30.09 848 25.04 4.9 40.7 83 2.3 36.1
02:55 1019 30.09 848 25.04 4.9 40.9 83 2.3 36.2
03:00 1019 30.09 848 25.04 4.9 40.9 84 2.4 36.3
03:05 1019 30.09 848 25.04 4.9 40.8 84 2.4 36.2
03:10 1019 30.09 848 25.04 4.8 40.6 84 2.4 36.3
03:15 1019 30.09 848 25.04 4.7 40.5 85 2.4 36.3
03:20 1019 30.09 848 25.04 4.8 40.6 85 2.5 36.4
03:25 1019 30.09 848 25.04 4.8 40.7 85 2.5 36.5
03:30 1019 30.09 848 25.04 4.7 40.5 85 2.5 36.4
03:35 1019 30.09 848 25.04 4.6 40.3 86 2.4 36.4
03:40 1019 30.09 848 25.04 4.7 40.4 86 2.5 36.4
03:45 1019 30.09 848 25.04 4.7 40.5 86 2.5 36.5
03:50 1019 30.09 848 25.04 4.7 40.5 86 2.5 36.6
03:55 1019 30.09 848 25.04 4.7 40.5 86 2.5 36.6
04:00 1019 30.09 848 25.04 4.7 40.4 86 2.5 36.5
04:05 1019 30.09 848 25.04 4.6 40.3 85 2.4 36.3
04:10 1019 30.09 848 25.04 4.6 40.2 85 2.3 36.1
04:15 1019 30.09 848 25.04 4.6 40.2 85 2.3 36.1
04:20 1019 30.09 848 25.04 4.6 40.2 85 2.3 36.1
04:25 1019 30.09 848 25.04 4.5 40.2 85 2.2 35.9
04:30 1019 30.09 848 25.04 4.5 40.1 85 2.1 35.8
04:35 1019 30.09 848 25.04 4.5 40.1 84 2.1 35.8
04:40 1019 30.09 848 25.04 4.5 40.1 84 2.1 35.7
04:45 1019 30.09 848 25.04 4.5 40.1 83 1.9 35.5
04:50 1019 30.09 848 25.04 4.5 40.1 84 1.9 35.5
04:55 1019 30.09 848 25.04 4.5 40 84 1.9 35.5
05:00 1019 30.09 848 25.04 4.5 40.1 83 1.9 35.5
05:05 1019 30.09 848 25.04 4.5 40.1 84 2 35.5
05:10 1019 30.09 848 25.04 4.5 40.1 85 2.1 35.8
05:15 1019 30.09 848 25.04 4.4 39.9 86 2.2 36
05:20 1019 30.09 848 25.04 4.3 39.8 86 2.2 36
05:25 1019 30.09 848 25.04 4.2 39.6 87 2.2 35.9
05:30 1019 30.09 848 25.04 4.2 39.6 87 2.2 35.9
05:35 1019 30.09 848 25.04 4.2 39.6 86 2.2 35.9
05:40 1019 30.09 848 25.04 4.2 39.5 87 2.2 35.9
05:45 1019 30.09 848 25.04 4.1 39.5 87 2.2 35.9
05:50 1019 30.09 848 25.04 4.1 39.4 87 2.2 35.9
05:55 1019 30.09 848 25.04 4.2 39.5 87 2.2 35.9
06:00 1019 30.09 848 25.04 4.1 39.5 87 2.2 35.9
06:05 1019 30.09 848 25.04 4.2 39.5 87 2.2 35.9
06:10 1019 30.09 848 25.04 4.1 39.4 87 2.1 35.9
06:15 1019 30.09 848 25.04 4.1 39.4 87 2.1 35.8
06:20 1019 30.09 848 25.04 4.1 39.4 87 2.2 35.9
06:25 1019 30.09 848 25.04 4.2 39.5 87 2.2 35.9
06:30 1019 30.09 848 25.04 4.2 39.5 87 2.1 35.8
06:35 1019 30.09 849 25.07 4.1 39.3 87 2 35.7
06:40 1019 30.09 849 25.07 4 39.2 87 2 35.6
06:45 1019 30.09 849 25.07 4 39.2 87 2 35.7
06:50 1019 30.09 849 25.07 4 39.2 87 2 35.7
06:55 1019 30.09 849 25.07 4 39.3 87 2.1 35.7
07:00 1019 30.09 849 25.07 4 39.2 87 2 35.6
07:05 1019 30.09 849 25.07 4 39.1 87 2 35.7
07:10 1019 30.09 849 25.07 4 39.1 87 2 35.6
07:15 1019 30.09 849 25.07 3.9 39 87 2 35.6
07:20 1019 30.09 849 25.07 3.9 39 87 2 35.6
07:25 1020 30.12 849 25.07 3.9 39.1 87 2 35.6
07:30 1020 30.12 849 25.07 3.9 39.1 87 2 35.6
07:35 1020 30.12 849 25.07 3.9 39.1 87 2 35.6
07:40 1020 30.12 849 25.07 3.9 39.1 87 2 35.6
07:45 1020 30.12 849 25.07 3.9 39.1 87 2 35.6
07:50 1020 30.12 849 25.07 3.9 39.1 87 2 35.6
07:55 1020 30.12 849 25.07 3.9 39 87 1.9 35.5
08:00 1020 30.12 849 25.07 3.8 38.9 88 2 35.5
08:05 1020 30.12 849 25.07 3.8 38.9 88 2 35.5
08:10 1020 30.12 849 25.07 3.8 38.8 88 1.9 35.5
08:15 1020 30.12 849 25.07 3.8 38.8 88 1.9 35.5
08:20 1020 30.12 849 25.07 3.8 38.8 88 1.9 35.4
08:25 1020 30.12 849 25.07 3.7 38.7 88 1.9 35.5
08:30 1020 30.12 849 25.07 3.8 38.8 88 2 35.5
08:35 1020 30.12 849 25.07 3.8 38.8 88 2 35.6
08:40 1020 30.12 849 25.07 3.8 38.8 88 1.9 35.5
08:45 1020 30.12 849 25.07 3.7 38.7 88 1.9 35.5
08:50 1020 30.12 849 25.07 3.8 38.8 88 2 35.7
08:55 1020 30.12 849 25.07 3.8 38.9 88 2 35.6
09:00 1020 30.12 849 25.07 3.7 38.7 88 1.9 35.5
09:05 1020 30.12 849 25.07 3.6 38.5 89 2 35.6
09:10 1020 30.12 849 25.07 3.7 38.7 89 2 35.7
09:15 1020 30.12 849 25.07 3.8 38.8 89 2.1 35.9
09:20 1020 30.12 849 25.07 3.8 38.8 89 2.1 35.8
09:25 1020 30.12 849 25.07 3.8 38.9 89 2.1 35.9
09:30 1020 30.12 849 25.07 3.8 38.8 88 2.1 35.7
09:35 1020 30.12 849 25.07 3.7 38.6 89 2 35.6
09:40 1020 30.12 849 25.07 3.5 38.3 89 1.9 35.4
09:45 1020 30.12 849 25.07 3.5 38.2 90 1.9 35.4
09:50 1020 30.12 849 25.07 3.6 38.5 90 2.1 35.7
09:55 1020 30.12 849 25.07 3.7 38.7 90 2.2 35.9
10:00 1020 30.12 849 25.07 3.7 38.7 89 2.1 35.9
10:05 1020 30.12 849 25.07 3.8 38.8 90 2.2 36
10:10 1020 30.12 850 25.1 3.9 39.1 90 2.4 36.3
10:15 1020 30.12 850 25.1 4 39.2 89 2.4 36.3
10:20 1020 30.12 850 25.1 3.9 39.1 88 2.2 35.9
10:25 1020 30.12 850 25.1 3.8 38.8 88 2 35.6
10:30 1021 30.15 850 25.1 3.5 38.3 87 1.5 34.7
10:35 1021 30.15 850 25.1 3.5 38.2 87 1.4 34.6
10:40 1021 30.15 850 25.1 3.4 38.1 85 1.1 33.9
10:45 1021 30.15 850 25.1 3.3 38 86 1.2 34.2
10:50 1021 30.15 850 25.1 3.5 38.3 87 1.4 34.6
10:55 1021 30.15 850 25.1 3.6 38.4 87 1.6 34.8
11:00 1021 30.15 850 25.1 3.7 38.6 87 1.7 35
11:05 1021 30.15 850 25.1 3.6 38.6 87 1.7 35.1
11:10 1021 30.15 850 25.1 3.5 38.3 85 1.3 34.3
11:15 1021 30.15 850 25.1 3.3 38 86 1.3 34.3
11:20 1021 30.15 850 25.1 3.3 38 86 1.2 34.2
11:25 1021 30.15 850 25.1 3.4 38.1 86 1.3 34.4
11:30 1021 30.15 850 25.1 3.5 38.2 86 1.3 34.3
11:35 1021 30.15 850 25.1 3.4 38.1 87 1.4 34.6
11:40 1021 30.15 850 25.1 3.5 38.4 87 1.7 35
11:45 1021 30.15 850 25.1 3.7 38.7 86 1.6 34.8
11:50 1021 30.15 850 25.1 3.7 38.6 86 1.5 34.8
11:55 1021 30.15 850 25.1 3.6 38.6 87 1.7 35.1
12:00 1021 30.15 850 25.1 3.8 38.8 87 1.8 35.2
12:05 1020 30.12 850 25.1 4 39.1 85 1.6 34.9
12:10 1020 30.12 850 25.1 3.7 38.7 84 1.3 34.3
12:15 1020 30.12 850 25.1 3.7 38.6 84 1.2 34.1
12:20 1020 30.12 849 25.07 3.9 39 83 1.2 34.1
12:25 1020 30.12 849 25.07 3.9 39.1 84 1.5 34.7
12:30 1020 30.12 849 25.07 4.2 39.5 83 1.6 34.8
12:35 1020 30.12 849 25.07 4.2 39.6 83 1.6 34.9
12:40 1020 30.12 849 25.07 4.4 39.9 81 1.4 34.6
12:45 1020 30.12 849 25.07 4.2 39.5 82 1.4 34.5
12:50 1020 30.12 849 25.07 4.2 39.6 83 1.6 34.9
12:55 1020 30.12 849 25.07 4.5 40.2 82 1.8 35.3
13:00 1020 30.12 849 25.07 4.6 40.4 82 1.9 35.3
13:05 1020 30.12 849 25.07 4.6 40.4 81 1.6 34.9
13:10 1020 30.12 849 25.07 4.6 40.2 81 1.7 35
13:15 1020 30.12 849 25.07 4.8 40.6 80 1.6 34.8
13:20 1020 30.12 849 25.07 4.8 40.6 81 1.8 35.2
13:25 1020 30.12 849 25.07 4.9 40.8 78 1.4 34.6
13:30 1020 30.12 849 25.07 4.9 40.8 79 1.6 34.9
13:35 1020 30.12 849 25.07 4.9 40.8 78 1.3 34.4
13:40 1020 30.12 849 25.07 4.8 40.7 80 1.6 35
13:45 1020 30.12 849 25.07 5 40.9 80 1.9 35.4
13:50 1020 30.12 849 25.07 5 40.9 79 1.6 34.8
13:55 1020 30.12 849 25.07 5 40.9 80 1.8 35.2
14:00 1020 30.12 849 25.07 5.3 41.6 78 1.8 35.2
14:05 1020 30.12 849 25.07 5.4 41.7 79 2 35.6
14:10 1019 30.09 849 25.07 5.4 41.7 80 2.2 36
14:15 1019 30.09 849 25.07 5.8 42.4 78 2.2 35.9
14:20 1019 30.09 849 25.07 5.9 42.6 77 2.1 35.8
14:25 1019 30.09 848 25.04 6.1 43 77 2.3 36.1
14:30 1019 30.09 848 25.04 6.4 43.5 75 2.3 36.1
14:35 1019 30.09 848 25.04 6.5 43.7 74 2.3 36.1
14:40 1019 30.09 848 25.04 6.5 43.7 73 2 35.6
14:45 1019 30.09 848 25.04 6.4 43.6 75 2.3 36.2
14:50 1019 30.09 848 25.04 6.4 43.6 75 2.3 36.1
14:55 1019 30.09 848 25.04 6.6 43.8 73 2 35.6
15:00 1019 30.09 848 25.04 6.6 43.9 73 2.1 35.7
15:05 1019 30.09 848 25.04 6.7 44.1 72 2 35.6
15:10 1019 30.09 848 25.04 6.7 44.1 73 2.3 36.1
15:15 1019 30.09 848 25.04 6.8 44.2 72 2.1 35.7
15:20 1019 30.09 849 25.07 7.1 44.7 71 2.2 36
15:25 1019 30.09 849 25.07 7.2 44.9 71 2.2 36
15:30 1019 30.09 849 25.07 7.2 44.9 72 2.5 36.5
15:35 1019 30.09 849 25.07 7.2 44.9 70 2.1 35.8
15:40 1019 30.09 849 25.07 7.2 45 70 2.1 35.8
15:45 1019 30.09 849 25.07 7.3 45.1 70 2.2 35.9
15:50 1019 30.09 849 25.07 7.5 45.6 68 2.1 35.7
15:55 1019 30.09 849 25.07 7.6 45.6 69 2.3 36.1
16:00 1019 30.09 849 25.07 7.8 46 65 1.6 34.9
16:05 1019 30.09 849 25.07 8.2 46.8 64 1.8 35.2
16:10 1019 30.09 849 25.07 8.3 46.9 63 1.7 35.1
16:15 1019 30.09 849 25.07 7.6 45.7 67 1.9 35.5
16:20 1019 30.09 849 25.07 7.3 45.2 71 2.4 36.3
16:25 1019 30.09 849 25.07 7.5 45.4 70 2.3 36.1
16:30 1019 30.09 849 25.07 7.5 45.5 69 2.2 35.9
16:35 1019 30.09 849 25.07 7.5 45.5 68 1.9 35.4
16:40 1019 30.09 849 25.07 7.5 45.5 67 1.7 35.1
16:45 1019 30.09 849 25.07 7.6 45.6 66 1.8 35.2
16:50 1019 30.09 849 25.07 7.6 45.6 66 1.6 34.9
16:55 1019 30.09 849 25.07 7.8 46 62 0.9 33.7
17:00 1019 30.09 849 25.07 8.1 46.6 62 1.4 34.5
17:05 1019 30.09 849 25.07 8.2 46.8 61 1.3 34.3
17:10 1019 30.09 849 25.07 7.8 46 65 1.7 35
17:15 1019 30.09 849 25.07 7 44.7 66 1.2 34.1
17:20 1019 30.09 849 25.07 7 44.7 67 1.4 34.5
17:25 1020 30.12 849 25.07 7.1 44.7 69 1.7 35.1
17:30 1020 30.12 849 25.07 6.9 44.4 72 2.3 36.1
17:35 1020 30.12 849 25.07 6.3 43.3 74 2 35.6
17:40 1020 30.12 849 25.07 6 42.8 76 2 35.7
17:45 1020 30.12 849 25.07 5.9 42.6 76 2.1 35.7
17:50 1020 30.12 849 25.07 5.9 42.6 78 2.3 36.2
17:55 1020 30.12 849 25.07 5.8 42.5 77 2.2 35.9
18:00 1020 30.12 849 25.07 5.9 42.6 79 2.4 36.4
18:05 1020 30.12 849 25.07 5.8 42.4 76 1.9 35.5
18:10 1020 30.12 849 25.07 5.7 42.2 78 2.1 35.8
18:15 1020 30.12 849 25.07 5.6 42.1 75 1.5 34.7
18:20 1020 30.12 849 25.07 5.5 41.9 75 1.5 34.7
18:25 1020 30.12 849 25.07 5.4 41.8 76 1.5 34.8
18:30 1020 30.12 849 25.07 5.4 41.8 75 1.4 34.4
18:35 1020 30.12 849 25.07 5.4 41.8 77 1.7 35.1
18:40 1020 30.12 849 25.07 5.4 41.7 77 1.8 35.2
18:45 1020 30.12 849 25.07 5.3 41.5 78 1.7 35.1
18:50 1020 30.12 849 25.07 5.2 41.3 78 1.7 35.1
18:55 1020 30.12 849 25.07 5 41.1 79 1.6 35
19:00 1020 30.12 849 25.07 4.9 40.9 79 1.5 34.7
19:05 1020 30.12 849 25.07 4.9 40.7 79 1.4 34.6
19:10 1020 30.12 849 25.07 4.8 40.7 79 1.5 34.6
19:15 1020 30.12 849 25.07 4.8 40.6 80 1.6 34.9
19:20 1020 30.12 849 25.07 4.7 40.5 79 1.4 34.5
19:25 1020 30.12 849 25.07 4.7 40.5 80 1.5 34.7
19:30 1020 30.12 849 25.07 4.6 40.3 79 1.3 34.4
19:35 1020 30.12 849 25.07 4.6 40.2 80 1.4 34.4
19:40 1020 30.12 849 25.07 4.5 40.1 81 1.5 34.7
19:45 1020 30.12 849 25.07 4.4 39.9 80 1.3 34.4
19:50 1020 30.12 849 25.07 4.4 39.8 80 1.1 34
19:55 1020 30.12 849 25.07 4.3 39.8 79 1 33.8
20:00 1020 30.12 849 25.07 4.4 39.9 79 1 33.8
20:05 1020 30.12 849 25.07 4.4 39.8 79 1 33.9
20:10 1020 30.12 849 25.07 4.3 39.8 79 1.1 33.9
20:15 1020 30.12 849 25.07 4.3 39.7 80 1.1 33.9
20:20 1020 30.12 849 25.07 4.2 39.6 80 1 33.9
20:25 1020 30.12 849 25.07 4.2 39.5 79 0.9 33.5
20:30 1020 30.12 849 25.07 4.1 39.5 79 0.9 33.6
20:35 1020 30.12 849 25.07 4.1 39.4 80 0.9 33.7
20:40 1020 30.12 849 25.07 4.1 39.3 80 0.9 33.6
20:45 1020 30.12 849 25.07 4 39.3 80 0.8 33.5
20:50 1020 30.12 849 25.07 4 39.3 79 0.8 33.4
20:55 1020 30.12 849 25.07 4.1 39.3 79 0.7 33.3
21:00 1020 30.12 849 25.07 4.1 39.4 79 0.8 33.4
21:05 1020 30.12 849 25.07 4.1 39.4 79 0.8 33.4
21:10 1020 30.12 849 25.07 4.1 39.3 79 0.8 33.4
21:15 1020 30.12 849 25.07 4.1 39.3 79 0.8 33.4
21:20 1020 30.12 849 25.07 4 39.3 79 0.7 33.2
21:25 1020 30.12 849 25.07 4.1 39.3 78 0.6 33.1
21:30 1020 30.12 849 25.07 4.1 39.4 78 0.6 33.1
21:35 1020 30.12 849 25.07 4.2 39.5 78 0.7 33.2
21:40 1020 30.12 849 25.07 4.2 39.5 78 0.7 33.3
21:45 1020 30.12 849 25.07 4.2 39.5 78 0.7 33.3
21:50 1020 30.12 849 25.07 4.1 39.4 78 0.7 33.3
21:55 1020 30.12 849 25.07 4.1 39.4 79 0.8 33.4
22:00 1020 30.12 849 25.07 4.1 39.3 79 0.8 33.5
22:05 1020 30.12 849 25.07 4.1 39.4 79 0.8 33.4
22:10 1020 30.12 849 25.07 4.1 39.3 80 0.9 33.6
22:15 1020 30.12 849 25.07 4 39.3 81 1.1 34
22:20 1020 30.12 849 25.07 3.9 39.1 82 1.2 34.1
22:25 1020 30.12 849 25.07 3.9 39 83 1.2 34.2
22:30 1020 30.12 849 25.07 3.9 38.9 83 1.2 34.1
22:35 1020 30.12 849 25.07 3.8 38.9 82 1 33.8
22:40 1020 30.12 849 25.07 3.9 39.1 81 1 33.8
22:45 1020 30.12 849 25.07 3.9 39 81 0.9 33.6
22:50 1020 30.12 849 25.07 4 39.1 81 0.9 33.6
22:55 1020 30.12 849 25.07 4 39.1 80 0.8 33.5
23:00 1020 30.12 849 25.07 4 39.1 81 0.9 33.7
23:05 1020 30.12 849 25.07 3.8 38.9 81 0.9 33.6
23:10 1020 30.12 849 25.07 3.8 38.8 82 0.9 33.7
23:15 1020 30.12 849 25.07 3.7 38.7 82 0.9 33.6
23:20 1020 30.12 849 25.07 3.6 38.6 83 0.9 33.7
23:25 1020 30.12 849 25.07 3.5 38.2 84 1 33.8
23:30 1020 30.12 849 25.07 3.3 38 85 1 33.8
23:35 1020 30.12 849 25.07 3.2 37.8 85 1 33.8
23:40 1020 30.12 849 25.07 3.2 37.7 86 1 33.8
23:45 1020 30.12 849 25.07 3.1 37.6 86 1 33.8
23:50 1019 30.09 849 25.07 3.1 37.5 86 1 33.8
23:55 1019 30.09 849 25.07 2.9 37.3 87 0.9 33.7
24:00 1019 30.09 849 25.07 2.9 37.2 87 0.9 33.7